createdAt,value
2022-11-24T00:01:20.668Z,95340.88
2022-11-24T00:03:56.630Z,95323.47
2022-11-24T00:06:24.296Z,95329.38
2022-11-24T00:08:51.353Z,95335.28
2022-11-24T00:11:29.550Z,95338.91
2022-11-24T00:13:57.344Z,95340.50
2022-11-24T00:16:26.554Z,95337.91
2022-11-24T00:18:55.461Z,95341.47
2022-11-24T00:21:23.017Z,95340.53
2022-11-24T00:23:50.092Z,95343.47
2022-11-24T00:26:18.011Z,95347.41
2022-11-24T00:28:46.717Z,95350.06
2022-11-24T00:31:25.432Z,95351.69
2022-11-24T00:33:55.163Z,95357.53
2022-11-24T00:36:24.088Z,95358.88
2022-11-24T00:38:59.119Z,95360.50
2022-11-24T00:41:27.828Z,95367.44
2022-11-24T00:43:55.244Z,95362.50
2022-11-24T00:46:23.045Z,95357.31
2022-11-24T00:48:50.633Z,95370.38
2022-11-24T00:51:19.303Z,95368.03
2022-11-24T00:53:46.233Z,95367.44
2022-11-24T00:56:13.617Z,95364.16
2022-11-24T00:58:40.627Z,95371.81
2022-11-24T01:01:11.137Z,95374.16
2022-11-24T01:03:37.913Z,95378.91
2022-11-24T01:06:11.132Z,95381.97
2022-11-24T01:08:39.423Z,95379.19
2022-11-24T01:11:24.435Z,95383.34
2022-11-24T01:13:57.950Z,95383.69
2022-11-24T01:16:26.278Z,95392.22
2022-11-24T01:18:53.219Z,95396.69
2022-11-24T01:21:20.904Z,95391.34
2022-11-24T01:23:48.085Z,95391.88
2022-11-24T01:26:19.366Z,95383.41
2022-11-24T01:28:47.811Z,95397.13
2022-11-24T01:31:15.989Z,95400.25
2022-11-24T01:33:42.874Z,95404.91
2022-11-24T01:36:09.422Z,95406.41
2022-11-24T01:38:35.877Z,95406.31
2022-11-24T01:41:18.943Z,95408.03
2022-11-24T01:43:46.433Z,95405.75
2022-11-24T01:46:30.641Z,95412.34
2022-11-24T01:49:18.268Z,95410.38
2022-11-24T01:52:04.500Z,95410.03
2022-11-24T01:54:38.371Z,95411.06
2022-11-24T01:57:19.552Z,95412.41
2022-11-24T01:59:50.853Z,95415.38
2022-11-24T02:02:19.374Z,95419.28
2022-11-24T02:04:47.780Z,95415.50
2022-11-24T02:07:15.034Z,95431.09
2022-11-24T02:09:59.245Z,95412.91
2022-11-24T02:12:27.517Z,95424.47
2022-11-24T02:14:55.696Z,95428.63
2022-11-24T02:17:22.289Z,95436.03
2022-11-24T02:19:58.311Z,95435.03
2022-11-24T02:22:56.817Z,95430.00
2022-11-24T02:25:42.020Z,95424.34
2022-11-24T02:28:17.422Z,95417.81
2022-11-24T02:30:44.686Z,95423.94
2022-11-24T02:33:12.850Z,95422.66
2022-11-24T02:35:39.502Z,95423.50
2022-11-24T02:38:05.937Z,95426.50
2022-11-24T02:40:33.217Z,95425.19
2022-11-24T02:43:12.796Z,95422.56
2022-11-24T02:45:39.727Z,95427.53
2022-11-24T02:48:06.516Z,95429.16
2022-11-24T02:50:32.958Z,95434.41
2022-11-24T02:52:59.404Z,95431.09
2022-11-24T02:55:25.833Z,95436.03
2022-11-24T02:57:52.286Z,95440.81
2022-11-24T03:00:18.877Z,95439.31
2022-11-24T03:02:45.411Z,95449.16
2022-11-24T03:05:13.366Z,95450.78
2022-11-24T03:07:41.584Z,95443.78
2022-11-24T03:10:08.559Z,95455.97
2022-11-24T03:12:37.381Z,95451.88
2022-11-24T03:15:04.838Z,95457.88
2022-11-24T03:17:31.357Z,95457.88
2022-11-24T03:20:01.518Z,95459.25
2022-11-24T03:22:30.915Z,95449.44
2022-11-24T03:24:57.387Z,95456.28
2022-11-24T03:27:23.864Z,95447.38
2022-11-24T03:29:50.357Z,95450.38
2022-11-24T03:32:16.794Z,95444.91
2022-11-24T03:34:43.263Z,95442.91
2022-11-24T03:37:09.817Z,95450.50
2022-11-24T03:39:36.306Z,95456.72
2022-11-24T03:42:02.845Z,95459.34
2022-11-24T03:44:29.279Z,95458.72
2022-11-24T03:46:55.737Z,95453.59
2022-11-24T03:49:22.188Z,95457.38
2022-11-24T03:51:48.659Z,95452.44
2022-11-24T03:54:15.140Z,95452.13
2022-11-24T03:56:41.640Z,95456.38
2022-11-24T03:59:08.108Z,95458.34
2022-11-24T04:01:34.710Z,95449.59
2022-11-24T04:04:01.236Z,95450.38
2022-11-24T04:06:27.693Z,95457.50
2022-11-24T04:08:54.130Z,95469.09
2022-11-24T04:11:20.565Z,95471.41
2022-11-24T04:14:13.207Z,95475.41
2022-11-24T04:16:50.959Z,95487.22
2022-11-24T04:19:17.545Z,95483.66
2022-11-24T04:21:44.005Z,95493.13
2022-11-24T04:24:10.553Z,95485.47
2022-11-24T04:26:37.006Z,95482.66
2022-11-24T04:29:03.543Z,95488.69
2022-11-24T04:31:30.009Z,95489.84
2022-11-24T04:33:56.520Z,95486.94
2022-11-24T04:36:23.027Z,95488.38
2022-11-24T04:39:19.709Z,95491.13
2022-11-24T04:41:38.968Z,95496.00
2022-11-24T04:44:05.411Z,95499.44
2022-11-24T04:46:31.882Z,95510.53
2022-11-24T04:48:58.377Z,95511.78
2022-11-24T04:51:24.867Z,95513.28
2022-11-24T04:53:51.426Z,95513.97
2022-11-24T04:56:17.915Z,95503.59
2022-11-24T04:58:44.373Z,95512.06
2022-11-24T05:01:10.858Z,95498.72
2022-11-24T05:03:37.316Z,95503.66
2022-11-24T05:06:03.996Z,95487.59
2022-11-24T05:08:30.443Z,95489.56
2022-11-24T05:10:56.938Z,95492.84
2022-11-24T05:13:23.378Z,95492.53
2022-11-24T05:15:49.894Z,95493.16
2022-11-24T05:18:16.383Z,95511.22
2022-11-24T05:20:43.225Z,95499.44
2022-11-24T05:23:09.912Z,95504.00
2022-11-24T05:25:36.672Z,95512.88
2022-11-24T05:28:05.727Z,95507.28
2022-11-24T05:30:32.540Z,95513.50
2022-11-24T05:32:59.069Z,95513.50
2022-11-24T05:35:25.526Z,95515.84
2022-11-24T05:37:52.036Z,95522.69
2022-11-24T05:40:18.500Z,95520.09
2022-11-24T05:42:47.734Z,95520.28
2022-11-24T05:45:18.623Z,95523.75
2022-11-24T05:47:45.908Z,95529.97
2022-11-24T05:50:15.048Z,95533.91
2022-11-24T05:52:41.573Z,95533.53
2022-11-24T05:55:09.469Z,95527.94
2022-11-24T05:57:35.975Z,95531.91
2022-11-24T06:00:05.290Z,95533.81
2022-11-24T06:02:31.833Z,95526.47
2022-11-24T06:04:58.383Z,95523.38
2022-11-24T06:07:24.882Z,95524.75
2022-11-24T06:09:51.379Z,95517.16
2022-11-24T06:12:17.974Z,95513.63
2022-11-24T06:14:44.496Z,95528.63
2022-11-24T06:17:11.988Z,95527.31
2022-11-24T06:19:41.943Z,95532.53
2022-11-24T06:22:08.883Z,95532.19
2022-11-24T06:24:35.683Z,95534.34
2022-11-24T06:27:02.317Z,95538.91
2022-11-24T06:29:28.748Z,95545.59
2022-11-24T06:31:55.271Z,95533.53
2022-11-24T06:34:21.843Z,95546.19
2022-11-24T06:36:48.403Z,95543.56
2022-11-24T06:39:14.972Z,95529.91
2022-11-24T06:41:41.500Z,95534.44
2022-11-24T06:44:07.984Z,95519.28
2022-11-24T06:46:34.488Z,95539.09
2022-11-24T06:49:00.939Z,95543.19
2022-11-24T06:51:27.588Z,95543.59
2022-11-24T06:53:54.026Z,95551.91
2022-11-24T06:56:22.024Z,95545.03
2022-11-24T06:58:50.758Z,95538.41
2022-11-24T07:01:28.415Z,95559.44
2022-11-24T07:03:56.556Z,95559.31
2022-11-24T07:06:25.323Z,95561.34
2022-11-24T07:08:52.797Z,95554.16
2022-11-24T07:11:22.632Z,95554.06
2022-11-24T07:13:53.685Z,95565.66
2022-11-24T07:16:25.378Z,95563.81
2022-11-24T07:18:53.575Z,95579.78
2022-11-24T07:21:22.363Z,95587.59
2022-11-24T07:23:50.573Z,95592.03
2022-11-24T07:26:20.176Z,95588.78
2022-11-24T07:28:47.188Z,95595.22
2022-11-24T07:31:16.391Z,95598.47
2022-11-24T07:33:42.874Z,95605.47
2022-11-24T07:36:09.665Z,95605.06
2022-11-24T07:38:36.171Z,95605.66
2022-11-24T07:41:04.844Z,95602.72
2022-11-24T07:43:33.016Z,95591.94
2022-11-24T07:46:00.288Z,95586.78
2022-11-24T07:48:27.060Z,95594.63
2022-11-24T07:50:56.116Z,95595.16
2022-11-24T07:53:22.915Z,95597.25
2022-11-24T07:55:56.673Z,95583.44
2022-11-24T07:58:26.425Z,95589.72
2022-11-24T08:00:56.160Z,95583.50
2022-11-24T08:03:23.503Z,95585.13
2022-11-24T08:08:43.468Z,95583.88
2022-11-24T08:11:12.876Z,95585.66
2022-11-24T08:13:40.313Z,95588.44
2022-11-24T08:16:09.552Z,95591.41
2022-11-24T08:18:38.847Z,95581.38
2022-11-24T08:21:06.523Z,95582.88
2022-11-24T08:23:33.940Z,95595.66
2022-11-24T08:26:05.463Z,95607.03
2022-11-24T08:28:32.994Z,95596.84
2022-11-24T08:31:08.643Z,95606.19
2022-11-24T08:33:35.744Z,95608.03
2022-11-24T08:36:07.257Z,95602.75
2022-11-24T08:38:34.240Z,95610.31
2022-11-24T08:41:18.901Z,95612.94
2022-11-24T08:43:45.405Z,95618.00
2022-11-24T08:46:15.774Z,95617.66
2022-11-24T08:48:43.314Z,95626.69
2022-11-24T08:51:12.770Z,95627.47
2022-11-24T08:53:40.721Z,95636.56
2022-11-24T08:56:09.401Z,95640.41
2022-11-24T08:58:37.411Z,95647.09
2022-11-24T09:01:12.227Z,95645.13
2022-11-24T09:03:43.373Z,95642.34
2022-11-24T09:06:12.985Z,95647.56
2022-11-24T09:08:39.612Z,95646.44
2022-11-24T09:11:12.529Z,95653.13
2022-11-24T09:13:40.132Z,95647.81
2022-11-24T09:16:08.507Z,95648.13
2022-11-24T09:18:35.157Z,95653.75
2022-11-24T09:21:11.989Z,95651.13
2022-11-24T09:23:38.844Z,95643.00
2022-11-24T09:26:11.141Z,95635.47
2022-11-24T09:28:39.825Z,95650.25
2022-11-24T09:31:10.104Z,95643.84
2022-11-24T09:33:37.627Z,95649.91
2022-11-24T09:36:05.720Z,95653.81
2022-11-24T09:38:32.345Z,95653.88
2022-11-24T09:41:17.278Z,95664.34
2022-11-24T09:44:17.716Z,95664.84
2022-11-24T09:46:58.242Z,95662.66
2022-11-24T09:49:37.940Z,95658.00
2022-11-24T09:52:14.305Z,95656.34
2022-11-24T09:54:58.122Z,95662.47
2022-11-24T09:57:32.740Z,95667.34
2022-11-24T10:00:13.065Z,95674.00
2022-11-24T10:02:39.586Z,95660.97
2022-11-24T10:05:06.995Z,95666.50
2022-11-24T10:08:02.468Z,95667.69
2022-11-24T10:10:48.855Z,95673.25
2022-11-24T10:13:31.293Z,95663.34
2022-11-24T10:16:13.751Z,95664.56
2022-11-24T10:19:07.588Z,95668.56
2022-11-24T10:21:51.187Z,95659.66
2022-11-24T10:24:36.201Z,95656.59
2022-11-24T10:27:13.649Z,95651.72
2022-11-24T10:29:41.606Z,95656.75
2022-11-24T10:32:19.321Z,95649.59
2022-11-24T10:34:49.585Z,95659.59
2022-11-24T10:37:21.747Z,95660.88
2022-11-24T10:40:17.172Z,95660.53
2022-11-24T10:42:55.480Z,95663.34
2022-11-24T10:45:22.813Z,95656.22
2022-11-24T10:47:49.947Z,95650.50
2022-11-24T10:50:21.525Z,95654.31
2022-11-24T10:53:14.499Z,95652.19
2022-11-24T10:55:56.981Z,95661.94
2022-11-24T10:58:25.084Z,95662.28
2022-11-24T11:00:51.612Z,95668.97
2022-11-24T11:03:26.472Z,95656.75
2022-11-24T11:06:03.036Z,95654.31
2022-11-24T11:08:33.955Z,95665.97
2022-11-24T11:11:19.903Z,95668.56
2022-11-24T11:13:49.644Z,95675.94
2022-11-24T11:16:26.118Z,95670.16
2022-11-24T11:18:53.419Z,95670.44
2022-11-24T11:21:33.831Z,95659.66
2022-11-24T11:24:03.834Z,95655.47
2022-11-24T11:26:36.488Z,95657.47
2022-11-24T11:34:51.916Z,95648.66
2022-11-24T11:37:20.433Z,95655.88
2022-11-24T11:39:49.988Z,95649.97
2022-11-24T11:43:00.643Z,95649.72
2022-11-24T11:45:26.127Z,95648.34
2022-11-24T11:48:00.595Z,95644.53
2022-11-24T11:51:06.500Z,95648.28
2022-11-24T11:53:45.183Z,95649.72
2022-11-24T11:56:25.665Z,95651.03
2022-11-24T11:59:10.595Z,95653.50
2022-11-24T12:02:11.388Z,95641.41
2022-11-24T12:04:47.058Z,95652.44
2022-11-24T12:07:29.986Z,95639.41
2022-11-24T12:10:14.842Z,95635.41
2022-11-24T12:12:41.234Z,95649.06
2022-11-24T12:15:29.676Z,95633.31
2022-11-24T12:18:33.512Z,95634.72
2022-11-24T12:21:35.483Z,95636.75
2022-11-24T12:24:18.863Z,95629.44
2022-11-24T12:27:13.398Z,95631.53
2022-11-24T12:30:04.985Z,95635.66
2022-11-24T12:33:02.455Z,95633.09
2022-11-24T12:35:49.100Z,95622.84
2022-11-24T12:38:50.500Z,95617.19
2022-11-24T12:41:46.283Z,95620.63
2022-11-24T12:44:46.908Z,95611.91
2022-11-24T12:47:13.367Z,95604.91
2022-11-24T12:50:17.707Z,95593.31
2022-11-24T12:52:55.578Z,95590.63
2022-11-24T12:55:27.545Z,95577.00
2022-11-24T12:58:14.224Z,95581.91
2022-11-24T13:00:56.769Z,95559.34
2022-11-24T13:03:46.001Z,95563.22
2022-11-24T13:06:32.730Z,95550.31
2022-11-24T13:09:10.290Z,95547.56
2022-11-24T13:12:12.249Z,95541.56
2022-11-24T13:14:42.495Z,95540.81
2022-11-24T13:18:01.125Z,95528.75
2022-11-24T13:20:36.316Z,95537.56
2022-11-24T13:23:05.200Z,95539.19
2022-11-24T13:25:34.480Z,95536.31
2022-11-24T13:28:03.286Z,95533.03
2022-11-24T13:30:53.348Z,95521.63
2022-11-24T13:33:27.107Z,95516.94
2022-11-24T13:36:02.460Z,95510.59
2022-11-24T13:38:43.734Z,95508.56
2022-11-24T13:41:31.602Z,95504.44
2022-11-24T13:44:16.269Z,95500.63
2022-11-24T13:47:06.107Z,95497.41
2022-11-24T13:49:44.231Z,95490.81
2022-11-24T13:52:48.072Z,95490.97
2022-11-24T13:55:14.468Z,95480.25
2022-11-24T13:57:50.760Z,95481.16
2022-11-24T14:00:35.185Z,95481.72
2022-11-24T14:03:24.609Z,95475.22
2022-11-24T14:05:53.071Z,95471.09
2022-11-24T14:08:25.958Z,95468.44
2022-11-24T14:10:57.660Z,95472.00
2022-11-24T14:13:28.054Z,95468.31
2022-11-24T14:16:18.244Z,95458.50
2022-11-24T14:18:47.647Z,95447.81
2022-11-24T14:21:19.786Z,95446.59
2022-11-24T14:24:12.436Z,95455.84
2022-11-24T14:26:41.018Z,95458.69
2022-11-24T14:29:16.671Z,95463.97
2022-11-24T14:31:59.302Z,95455.00
2022-11-24T14:34:28.798Z,95448.44
2022-11-24T14:36:56.921Z,95431.72
2022-11-24T14:39:26.224Z,95427.28
2022-11-24T14:42:05.460Z,95436.31
2022-11-24T14:44:46.544Z,95436.31
2022-11-24T14:47:25.743Z,95434.59
2022-11-24T14:49:58.063Z,95436.22
2022-11-24T14:52:25.982Z,95434.78
2022-11-24T14:54:58.999Z,95421.06
2022-11-24T14:57:33.711Z,95435.72
2022-11-24T15:00:26.069Z,95428.97
2022-11-24T15:03:01.484Z,95424.44
2022-11-24T15:05:57.065Z,95421.97
2022-11-24T15:08:37.307Z,95420.13
2022-11-24T15:11:06.778Z,95414.34
2022-11-24T15:13:39.959Z,95412.59
2022-11-24T15:16:15.850Z,95422.75
2022-11-24T15:18:46.348Z,95424.53
2022-11-24T15:21:18.896Z,95434.69
2022-11-24T15:24:15.150Z,95437.88
2022-11-24T15:26:42.367Z,95455.16
2022-11-24T15:29:10.446Z,95463.63
2022-11-24T15:31:37.830Z,95470.19
2022-11-24T15:34:04.369Z,95460.38
2022-11-24T15:36:30.967Z,95467.81
2022-11-24T15:38:57.452Z,95466.19
2022-11-24T15:41:31.126Z,95467.97
2022-11-24T15:43:57.665Z,95469.28
2022-11-24T15:46:24.723Z,95471.31
2022-11-24T15:48:51.218Z,95466.75
2022-11-24T15:51:17.800Z,95468.34
2022-11-24T15:53:49.847Z,95469.75
2022-11-24T15:56:31.019Z,95469.94
2022-11-24T15:58:57.549Z,95469.41
2022-11-24T16:01:29.883Z,95467.41
2022-11-24T16:03:56.385Z,95471.81
2022-11-24T16:06:24.948Z,95477.31
2022-11-24T16:08:53.428Z,95475.31
2022-11-24T16:11:20.535Z,95476.41
2022-11-24T16:13:51.914Z,95476.50
2022-11-24T16:16:20.913Z,95477.91
2022-11-24T16:18:47.433Z,95483.00
2022-11-24T16:21:13.919Z,95485.00
2022-11-24T16:23:40.626Z,95479.34
2022-11-24T16:26:07.435Z,95472.44
2022-11-24T16:28:34.580Z,95478.53
2022-11-24T16:31:01.417Z,95469.91
2022-11-24T16:33:30.661Z,95484.81
2022-11-24T16:35:57.123Z,95473.16
2022-11-24T16:38:23.590Z,95470.06
2022-11-24T16:40:54.917Z,95470.06
2022-11-24T16:43:21.685Z,95479.31
2022-11-24T16:46:15.271Z,95483.25
2022-11-24T16:48:41.901Z,95485.88
2022-11-24T16:51:09.827Z,95481.47
2022-11-24T16:53:37.153Z,95481.66
2022-11-24T16:56:03.797Z,95483.28
2022-11-24T16:58:30.240Z,95476.19
2022-11-24T17:01:10.696Z,95464.81
2022-11-24T17:03:38.440Z,95470.28
2022-11-24T17:06:07.388Z,95462.72
2022-11-24T17:08:37.377Z,95463.72
2022-11-24T17:11:06.650Z,95457.63
2022-11-24T17:13:34.123Z,95462.69
2022-11-24T17:16:09.059Z,95458.59
2022-11-24T17:18:36.234Z,95453.59
2022-11-24T17:21:09.218Z,95450.25
2022-11-24T17:23:36.135Z,95453.88
2022-11-24T17:26:07.319Z,95454.63
2022-11-24T17:28:34.991Z,95439.97
2022-11-24T17:31:09.457Z,95444.13
2022-11-24T17:33:36.405Z,95437.72
2022-11-24T17:36:06.121Z,95433.19
2022-11-24T17:38:32.992Z,95435.69
2022-11-24T17:40:59.632Z,95448.25
2022-11-24T17:43:26.105Z,95448.66
2022-11-24T17:45:57.209Z,95446.22
2022-11-24T17:48:24.106Z,95448.31
2022-11-24T17:51:02.649Z,95440.00
2022-11-24T17:53:29.933Z,95436.69
2022-11-24T17:56:01.002Z,95443.06
2022-11-24T17:58:29.107Z,95443.59
2022-11-24T18:00:56.008Z,95448.69
2022-11-24T18:03:22.882Z,95460.66
2022-11-24T18:05:49.389Z,95456.34
2022-11-24T18:08:15.869Z,95445.84
2022-11-24T18:10:42.360Z,95453.09
2022-11-24T18:13:08.842Z,95458.03
2022-11-24T18:15:35.441Z,95472.19
2022-11-24T18:18:03.012Z,95470.41
2022-11-24T18:20:29.755Z,95475.72
2022-11-24T18:23:05.657Z,95479.94
2022-11-24T18:25:32.517Z,95485.09
2022-11-24T18:27:58.984Z,95487.00
2022-11-24T18:30:25.438Z,95483.56
2022-11-24T18:32:51.904Z,95473.47
2022-11-24T18:35:18.377Z,95480.56
2022-11-24T18:37:44.827Z,95480.41
2022-11-24T18:40:11.390Z,95493.50
2022-11-24T18:42:37.866Z,95486.84
2022-11-24T18:45:05.241Z,95473.94
2022-11-24T18:47:31.699Z,95468.34
2022-11-24T18:49:58.155Z,95466.16
2022-11-24T18:52:24.648Z,95468.00
2022-11-24T18:54:51.256Z,95469.84
2022-11-24T18:57:17.688Z,95475.78
2022-11-24T18:59:44.153Z,95474.59
2022-11-24T19:02:10.632Z,95463.25
2022-11-24T19:04:37.323Z,95467.03
2022-11-24T19:07:03.927Z,95458.53
2022-11-24T19:09:30.360Z,95453.59
2022-11-24T19:11:56.841Z,95452.28
2022-11-24T19:14:23.370Z,95450.00
2022-11-24T19:16:50.183Z,95440.53
2022-11-24T19:19:17.680Z,95441.97
2022-11-24T19:21:44.681Z,95439.75
2022-11-24T19:24:11.866Z,95438.56
2022-11-24T19:26:39.454Z,95444.69
2022-11-24T19:29:07.008Z,95447.78
2022-11-24T19:31:34.872Z,95448.75
2022-11-24T19:34:02.062Z,95457.97
2022-11-24T19:36:28.549Z,95454.03
2022-11-24T19:38:57.391Z,95459.63
2022-11-24T19:41:28.699Z,95455.22
2022-11-24T19:43:55.613Z,95452.78
2022-11-24T19:46:23.858Z,95457.06
2022-11-24T19:48:51.092Z,95453.53
2022-11-24T19:51:20.929Z,95448.19
2022-11-24T19:53:47.933Z,95443.59
2022-11-24T19:56:17.493Z,95440.22
2022-11-24T19:58:44.478Z,95444.72
2022-11-24T20:01:16.740Z,95446.03
2022-11-24T20:03:45.285Z,95451.97
2022-11-24T20:06:14.073Z,95452.91
2022-11-24T20:08:42.279Z,95447.66
2022-11-24T20:11:12.111Z,95445.28
2022-11-24T20:13:40.676Z,95444.13
2022-11-24T20:16:12.428Z,95435.84
2022-11-24T20:18:42.148Z,95445.19
2022-11-24T20:21:15.083Z,95452.41
2022-11-24T20:23:42.187Z,95452.63
2022-11-24T20:26:15.880Z,95447.34
2022-11-24T20:28:43.056Z,95448.19
2022-11-24T20:31:14.765Z,95457.78
2022-11-24T20:33:41.907Z,95456.19
2022-11-24T20:36:13.359Z,95457.00
2022-11-24T20:38:41.988Z,95461.66
2022-11-24T20:41:11.416Z,95462.94
2022-11-24T20:43:39.367Z,95473.44
2022-11-24T20:46:09.473Z,95466.84
2022-11-24T20:48:36.709Z,95475.38
2022-11-24T20:51:09.258Z,95466.84
2022-11-24T20:53:36.788Z,95469.44
2022-11-24T20:56:10.550Z,95468.09
2022-11-24T20:58:38.448Z,95467.09
2022-11-24T21:01:12.592Z,95454.72
2022-11-24T21:03:43.264Z,95457.50
2022-11-24T21:06:12.153Z,95469.69
2022-11-24T21:08:40.960Z,95477.25
2022-11-24T21:11:09.996Z,95479.91
2022-11-24T21:13:37.871Z,95485.50
2022-11-24T21:16:30.419Z,95478.00
2022-11-24T21:18:59.786Z,95482.78
2022-11-24T21:21:30.676Z,95476.19
2022-11-24T21:23:57.185Z,95481.91
2022-11-24T21:26:23.692Z,95492.41
2022-11-24T21:28:50.183Z,95481.56
2022-11-24T21:31:19.334Z,95484.19
2022-11-24T21:33:48.562Z,95482.84
2022-11-24T21:36:17.403Z,95485.47
2022-11-24T21:38:44.323Z,95492.69
2022-11-24T21:41:11.968Z,95496.81
2022-11-24T21:43:38.442Z,95504.72
2022-11-24T21:46:10.417Z,95504.88
2022-11-24T21:48:38.222Z,95497.63
2022-11-24T21:51:07.294Z,95501.63
2022-11-24T21:53:36.211Z,95503.56
2022-11-24T21:56:10.543Z,95511.75
2022-11-24T21:58:37.007Z,95517.16
2022-11-24T22:01:07.751Z,95516.69
2022-11-24T22:03:34.768Z,95525.38
2022-11-24T22:06:01.756Z,95527.34
2022-11-24T22:08:30.936Z,95528.16
2022-11-24T22:11:05.968Z,95532.44
2022-11-24T22:13:32.579Z,95536.91
2022-11-24T22:16:13.825Z,95529.84
2022-11-24T22:18:42.172Z,95534.78
2022-11-24T22:21:15.249Z,95527.22
2022-11-24T22:23:42.796Z,95531.81
2022-11-24T22:26:15.332Z,95535.06
2022-11-24T22:28:43.265Z,95533.41
2022-11-24T22:31:21.654Z,95531.09
2022-11-24T22:33:49.809Z,95532.41
2022-11-24T22:36:18.249Z,95539.31
2022-11-24T22:38:44.748Z,95539.00
2022-11-24T22:41:14.657Z,95547.88
2022-11-24T22:43:43.626Z,95553.47
2022-11-24T22:46:12.657Z,95552.34
2022-11-24T22:48:39.729Z,95562.09
2022-11-24T22:51:09.621Z,95569.03
2022-11-24T22:53:36.158Z,95571.63
2022-11-24T22:56:08.080Z,95580.03
2022-11-24T22:58:34.576Z,95580.53
2022-11-24T23:01:13.591Z,95580.53
2022-11-24T23:03:41.075Z,95580.53
2022-11-24T23:06:14.634Z,95572.97
2022-11-24T23:08:41.554Z,95570.03
2022-11-24T23:11:14.689Z,95583.47
2022-11-24T23:13:41.698Z,95581.84
2022-11-24T23:16:14.550Z,95570.69
2022-11-24T23:18:42.237Z,95582.16
2022-11-24T23:21:08.651Z,95593.53
2022-11-24T23:23:35.280Z,95590.72
2022-11-24T23:26:03.917Z,95572.94
2022-11-24T23:28:30.916Z,95569.31
2022-11-24T23:31:01.338Z,95558.13
2022-11-24T23:33:27.919Z,95550.22
2022-11-24T23:35:54.395Z,95555.84
2022-11-24T23:38:20.857Z,95545.63
2022-11-24T23:40:47.343Z,95535.16
2022-11-24T23:43:13.791Z,95547.22
2022-11-24T23:45:40.291Z,95551.69
2022-11-24T23:48:06.804Z,95559.69
2022-11-24T23:50:35.156Z,95567.91
2022-11-24T23:53:01.739Z,95567.22
2022-11-24T23:55:28.180Z,95579.38
2022-11-24T23:57:54.636Z,95567.50
